Time;durP1;ratioP1;P1;durP2;ratioP2;P2;SDS_P1;SDS_P2;PMS_P1;PMS_P2;Temp;Humidity;BMP_temperature;BMP_pressure;BME280_temperature;BME280_humidity;BME280_pressure;Samples;Min_cycle;Max_cycle;Signal;HPM_P1;HPM_P2
2023/06/16 00:01:04;;;;;;;7.50;4.70;;;22.90;53.40;;;;;;5135431;27;20277;-73
2023/06/16 00:03:34;;;;;;;7.07;4.93;;;22.90;53.30;;;;;;5134486;27;20791;-73
2023/06/16 00:06:03;;;;;;;6.47;4.63;;;22.80;53.20;;;;;;5135325;27;20249;-73
2023/06/16 00:08:31;;;;;;;5.70;5.00;;;22.90;53.40;;;;;;5135880;27;20561;-79
2023/06/16 00:11:00;;;;;;;6.90;5.00;;;22.90;53.30;;;;;;5135460;27;20694;-73
2023/06/16 00:13:27;;;;;;;7.40;5.13;;;22.80;53.20;;;;;;5135585;27;20715;-79
2023/06/16 00:15:54;;;;;;;5.55;4.65;;;22.80;53.20;;;;;;5135523;27;20303;-73
2023/06/16 00:18:23;;;;;;;6.68;4.90;;;22.90;53.30;;;;;;5135409;27;20245;-79
2023/06/16 00:20:52;;;;;;;6.20;4.35;;;22.80;53.30;;;;;;5135667;27;20220;-73
2023/06/16 00:23:21;;;;;;;7.43;5.05;;;22.80;53.20;;;;;;5135433;27;20303;-73
2023/06/16 00:25:48;;;;;;;7.50;5.45;;;22.80;53.30;;;;;;5135496;27;20631;-73
2023/06/16 00:28:16;;;;;;;5.10;4.50;;;22.80;53.20;;;;;;5135036;27;20235;-78
2023/06/16 00:30:45;;;;;;;5.72;4.82;;;22.80;53.20;;;;;;5134824;27;20239;-79
2023/06/16 00:33:12;;;;;;;5.35;4.63;;;22.80;53.20;;;;;;5134520;27;20195;-74
2023/06/16 00:35:40;;;;;;;8.65;5.13;;;22.80;53.30;;;;;;5116767;27;20212;-78
2023/06/16 00:38:07;;;;;;;6.35;4.88;;;22.80;53.20;;;;;;5134842;27;20191;-74
2023/06/16 00:40:34;;;;;;;6.13;4.95;;;22.80;53.20;;;;;;5135177;27;20192;-79
2023/06/16 00:43:02;;;;;;;7.78;5.03;;;22.70;53.20;;;;;;5134836;27;20281;-80
2023/06/16 00:45:30;;;;;;;7.15;5.18;;;22.80;53.20;;;;;;5134471;27;20224;-78
2023/06/16 00:47:58;;;;;;;5.22;4.63;;;22.80;53.20;;;;;;5135011;27;20220;-76
2023/06/16 00:50:25;;;;;;;8.02;4.95;;;22.80;53.20;;;;;;5134669;27;20642;-78
2023/06/16 00:52:53;;;;;;;5.45;4.78;;;22.70;53.20;;;;;;5134487;27;20851;-78
2023/06/16 00:55:21;;;;;;;5.63;4.68;;;22.70;53.20;;;;;;5134519;27;20625;-78
2023/06/16 00:57:49;;;;;;;6.78;5.05;;;22.70;53.20;;;;;;5134672;27;20642;-79
2023/06/16 01:00:17;;;;;;;6.50;5.32;;;22.70;53.20;;;;;;5134764;27;20311;-73
2023/06/16 01:02:45;;;;;;;10.98;5.57;;;22.70;53.10;;;;;;5133754;27;20224;-73
2023/06/16 01:05:16;;;;;;;7.15;5.38;;;22.70;53.20;;;;;;5134209;27;20242;-79
2023/06/16 01:07:50;;;;;;;5.57;5.03;;;22.70;53.10;;;;;;5134170;27;20771;-79
2023/06/16 01:10:25;;;;;;;7.00;5.28;;;22.70;53.20;;;;;;5135006;27;20184;-75
2023/06/16 01:13:00;;;;;;;4.93;4.43;;;22.70;53.20;;;;;;5134494;27;20219;-78
2023/06/16 01:15:29;;;;;;;5.43;4.85;;;22.70;53.20;;;;;;5134140;27;20195;-78
2023/06/16 01:18:01;;;;;;;5.72;4.97;;;22.70;53.20;;;;;;5134267;27;20821;-79
2023/06/16 01:20:38;;;;;;;7.70;5.00;;;22.70;53.20;;;;;;5134369;27;20268;-73
2023/06/16 01:23:20;;;;;;;7.50;4.82;;;22.70;53.20;;;;;;5134078;27;20204;-75
2023/06/16 01:25:51;;;;;;;8.55;5.03;;;22.70;53.10;;;;;;5134300;27;20220;-78
2023/06/16 01:28:21;;;;;;;5.95;5.07;;;22.70;53.20;;;;;;5134493;27;20241;-78
2023/06/16 01:30:52;;;;;;;6.57;5.30;;;22.60;53.00;;;;;;5134222;27;20265;-78
2023/06/16 01:33:21;;;;;;;11.45;5.50;;;22.70;53.20;;;;;;5133952;27;20184;-78
2023/06/16 01:35:50;;;;;;;6.40;5.05;;;22.70;53.10;;;;;;5133556;27;20697;-78
2023/06/16 01:38:19;;;;;;;9.43;5.35;;;22.60;53.10;;;;;;5134083;27;20203;-78
2023/06/16 01:40:50;;;;;;;9.00;5.63;;;22.60;53.10;;;;;;5134119;27;20217;-78
2023/06/16 01:43:18;;;;;;;5.85;5.20;;;22.60;53.10;;;;;;5133470;27;20286;-78
2023/06/16 01:45:48;;;;;;;5.53;4.93;;;22.60;53.10;;;;;;5133083;27;20240;-78
2023/06/16 01:48:16;;;;;;;6.47;5.32;;;22.60;53.10;;;;;;5133771;27;20220;-77
2023/06/16 01:50:44;;;;;;;8.68;5.00;;;22.60;53.10;;;;;;5133736;27;20200;-74
2023/06/16 01:53:11;;;;;;;6.78;5.43;;;22.60;53.00;;;;;;5133918;27;20249;-73
2023/06/16 01:55:38;;;;;;;6.22;5.63;;;22.60;53.10;;;;;;5133313;27;20661;-78
2023/06/16 01:58:07;;;;;;;6.20;4.88;;;22.60;53.10;;;;;;5133877;27;20220;-78
2023/06/16 02:00:38;;;;;;;5.65;5.00;;;22.60;53.10;;;;;;5133697;27;20556;-79
2023/06/16 02:03:12;;;;;;;6.22;4.90;;;22.60;53.10;;;;;;5133434;27;20216;-78
2023/06/16 02:05:44;;;;;;;6.97;5.78;;;22.60;53.10;;;;;;5132895;27;20223;-73
2023/06/16 02:08:15;;;;;;;5.72;5.13;;;22.60;53.10;;;;;;5133674;28;20193;-78
2023/06/16 02:10:42;;;;;;;5.95;5.18;;;22.50;53.00;;;;;;5133579;28;20269;-78
2023/06/16 02:13:11;;;;;;;5.63;4.95;;;22.50;53.00;;;;;;5133242;28;20202;-73
2023/06/16 02:15:39;;;;;;;5.70;5.18;;;22.50;53.00;;;;;;5133203;28;20275;-77
2023/06/16 02:18:09;;;;;;;6.80;5.00;;;22.50;52.90;;;;;;5133100;28;20184;-73
2023/06/16 02:20:37;;;;;;;6.22;4.80;;;22.50;53.00;;;;;;5133173;28;20224;-73
2023/06/16 02:23:04;;;;;;;7.97;5.25;;;22.50;53.00;;;;;;5133731;28;20220;-74
2023/06/16 02:25:32;;;;;;;7.45;5.43;;;22.50;52.90;;;;;;5133343;28;20224;-77
2023/06/16 02:27:59;;;;;;;6.15;5.20;;;22.50;53.00;;;;;;5133970;27;20216;-73
2023/06/16 02:30:28;;;;;;;5.45;4.80;;;22.50;53.00;;;;;;5116887;28;20729;-79
2023/06/16 02:32:57;;;;;;;6.25;5.40;;;22.50;53.00;;;;;;5128971;27;20220;-78
2023/06/16 02:35:24;;;;;;;8.55;5.53;;;22.50;53.00;;;;;;5137432;27;20207;-78
2023/06/16 02:37:53;;;;;;;7.13;5.35;;;22.50;53.00;;;;;;5137118;27;20242;-73
2023/06/16 02:40:20;;;;;;;7.20;5.50;;;22.50;53.00;;;;;;5137435;27;20196;-78
2023/06/16 02:42:48;;;;;;;6.95;5.32;;;22.50;52.90;;;;;;5137085;27;20212;-75
2023/06/16 02:45:15;;;;;;;7.43;5.60;;;22.50;53.00;;;;;;5136578;27;20596;-75
2023/06/16 02:47:44;;;;;;;8.82;5.40;;;22.50;52.90;;;;;;5136401;27;20233;-74
2023/06/16 02:50:11;;;;;;;7.28;5.93;;;22.50;52.90;;;;;;5137349;27;20192;-74
2023/06/16 02:52:41;;;;;;;5.75;5.20;;;22.50;52.90;;;;;;5137022;27;20240;-73
2023/06/16 02:55:08;;;;;;;9.20;5.38;;;22.50;52.90;;;;;;5136957;27;20200;-78
2023/06/16 02:57:35;;;;;;;7.00;5.38;;;22.40;52.90;;;;;;5136842;27;20307;-73
2023/06/16 03:00:03;;;;;;;7.85;5.90;;;22.40;52.90;;;;;;5136862;27;20188;-78
2023/06/16 03:02:31;;;;;;;6.65;5.13;;;22.40;52.90;;;;;;5136898;27;20212;-78
2023/06/16 03:05:01;;;;;;;6.28;5.53;;;22.40;52.90;;;;;;5136472;27;20244;-78
2023/06/16 03:07:31;;;;;;;6.35;5.70;;;22.40;52.90;;;;;;5136807;27;20219;-77
2023/06/16 03:09:59;;;;;;;5.53;4.97;;;22.40;52.90;;;;;;5136574;27;20181;-79
2023/06/16 03:12:26;;;;;;;8.15;5.55;;;22.40;53.50;;;;;;5136151;27;20769;-73
2023/06/16 03:14:53;;;;;;;7.13;5.45;;;22.40;52.90;;;;;;5136188;27;20185;-73
2023/06/16 03:17:20;;;;;;;8.00;5.53;;;22.40;52.90;;;;;;5136450;27;20251;-79
2023/06/16 03:19:47;;;;;;;5.55;5.05;;;22.40;52.90;;;;;;5136802;27;20199;-78
2023/06/16 03:22:16;;;;;;;7.47;5.38;;;22.40;52.90;;;;;;5136070;27;20684;-76
2023/06/16 03:24:44;;;;;;;6.78;5.60;;;22.40;52.90;;;;;;5136532;27;20243;-73
2023/06/16 03:27:11;;;;;;;9.02;5.40;;;22.40;52.90;;;;;;5136499;27;20273;-78
2023/06/16 03:29:38;;;;;;;6.82;5.47;;;22.40;52.90;;;;;;5136187;27;20846;-78
2023/06/16 03:32:06;;;;;;;6.45;5.10;;;22.40;52.90;;;;;;5136494;27;20243;-74
2023/06/16 03:34:34;;;;;;;7.95;6.07;;;22.40;52.90;;;;;;5136060;27;20188;-76
2023/06/16 03:37:01;;;;;;;11.30;6.00;;;22.40;52.90;;;;;;5136452;27;20294;-78
2023/06/16 03:39:29;;;;;;;7.07;5.93;;;22.40;52.90;;;;;;5134561;27;20563;-77
2023/06/16 03:41:56;;;;;;;7.57;5.88;;;22.40;52.90;;;;;;5136053;27;20269;-78
2023/06/16 03:44:23;;;;;;;6.68;5.72;;;22.40;52.90;;;;;;5135456;27;20548;-78
2023/06/16 03:46:50;;;;;;;6.38;5.10;;;22.30;52.80;;;;;;5136228;27;20228;-73
2023/06/16 03:49:17;;;;;;;6.93;5.88;;;22.30;52.80;;;;;;5136088;27;20196;-78
2023/06/16 03:51:44;;;;;;;10.60;5.75;;;22.30;52.80;;;;;;5135683;27;20755;-79
2023/06/16 03:54:12;;;;;;;7.90;5.82;;;22.30;52.80;;;;;;5136115;27;20195;-72
2023/06/16 03:56:41;;;;;;;6.65;5.60;;;22.30;52.80;;;;;;5136198;27;20307;-74
2023/06/16 03:59:08;;;;;;;8.60;6.10;;;22.30;52.80;;;;;;5136253;27;20636;-73
2023/06/16 04:01:36;;;;;;;7.45;6.18;;;22.30;52.80;;;;;;5135689;27;20705;-78
2023/06/16 04:04:05;;;;;;;7.15;6.03;;;22.30;52.80;;;;;;5135746;27;20562;-78
2023/06/16 04:06:34;;;;;;;10.15;6.20;;;22.30;52.80;;;;;;5135487;27;20879;-79
2023/06/16 04:09:02;;;;;;;6.35;5.68;;;22.30;52.80;;;;;;5135773;27;20283;-74
2023/06/16 04:11:30;;;;;;;6.88;5.63;;;22.30;52.80;;;;;;5135427;27;20552;-78
2023/06/16 04:13:58;;;;;;;7.38;5.97;;;22.30;52.80;;;;;;5135271;27;20252;-78
2023/06/16 04:16:25;;;;;;;7.28;6.40;;;22.30;52.80;;;;;;5135605;27;20220;-77
2023/06/16 04:18:53;;;;;;;7.90;6.32;;;22.30;52.80;;;;;;5135561;27;20227;-78
2023/06/16 04:21:20;;;;;;;7.32;5.80;;;22.30;52.80;;;;;;5135753;27;20213;-78
2023/06/16 04:23:47;;;;;;;7.13;5.82;;;22.30;52.80;;;;;;5134985;27;20276;-74
2023/06/16 04:26:19;;;;;;;7.85;6.72;;;22.30;52.80;;;;;;5135504;27;20216;-75
2023/06/16 04:28:48;;;;;;;6.97;6.00;;;22.30;52.80;;;;;;5135448;27;20271;-78
2023/06/16 04:31:17;;;;;;;8.45;6.40;;;22.30;53.50;;;;;;5135417;27;20299;-73
2023/06/16 04:33:44;;;;;;;6.95;5.97;;;22.30;52.80;;;;;;5135057;27;20224;-78
2023/06/16 04:36:11;;;;;;;7.28;6.40;;;22.30;52.80;;;;;;5134928;27;20236;-73
2023/06/16 04:38:38;;;;;;;9.02;6.50;;;22.20;52.70;;;;;;5134999;27;20197;-77
2023/06/16 04:41:05;;;;;;;7.80;6.20;;;22.20;52.80;;;;;;5135303;27;20203;-72
2023/06/16 04:43:32;;;;;;;7.18;6.03;;;22.20;52.70;;;;;;5134785;27;20616;-73
2023/06/16 04:45:59;;;;;;;7.85;6.07;;;22.20;52.80;;;;;;5134413;27;20251;-78
2023/06/16 04:48:28;;;;;;;8.15;6.40;;;22.20;52.80;;;;;;5134864;27;20227;-77
2023/06/16 04:50:57;;;;;;;7.95;6.03;;;22.20;52.70;;;;;;5134328;27;20208;-74
2023/06/16 04:53:24;;;;;;;6.85;6.00;;;22.20;52.70;;;;;;5135001;27;20207;-78
2023/06/16 04:55:51;;;;;;;8.43;5.90;;;22.20;52.70;;;;;;5134862;27;20184;-73
2023/06/16 04:58:18;;;;;;;9.57;6.50;;;22.20;52.80;;;;;;5134644;27;20216;-78
2023/06/16 05:00:45;;;;;;;7.93;6.18;;;22.20;52.70;;;;;;5134539;27;20216;-74
2023/06/16 05:03:12;;;;;;;6.68;5.97;;;22.20;52.80;;;;;;5134249;27;20217;-73
2023/06/16 05:05:41;;;;;;;6.70;6.00;;;22.20;52.70;;;;;;5134034;27;20279;-77
2023/06/16 05:08:08;;;;;;;7.07;6.30;;;22.20;52.80;;;;;;5134530;27;20686;-73
2023/06/16 05:10:36;;;;;;;7.40;6.30;;;22.20;52.70;;;;;;5134827;27;20284;-74
2023/06/16 05:13:03;;;;;;;6.47;5.75;;;22.20;52.70;;;;;;5134457;27;20257;-74
2023/06/16 05:15:30;;;;;;;8.93;6.47;;;22.20;52.70;;;;;;5133941;27;20193;-78
2023/06/16 05:17:57;;;;;;;7.10;5.85;;;22.20;52.70;;;;;;5134056;27;20595;-74
2023/06/16 05:20:24;;;;;;;6.80;5.90;;;22.20;52.70;;;;;;5133919;27;20747;-73
2023/06/16 05:22:53;;;;;;;8.15;5.97;;;22.20;52.70;;;;;;5133969;27;20694;-73
2023/06/16 05:25:20;;;;;;;8.27;6.20;;;22.20;52.70;;;;;;5133467;27;20251;-77
2023/06/16 05:27:47;;;;;;;10.75;6.40;;;22.20;52.80;;;;;;5133925;27;20286;-77
2023/06/16 05:30:14;;;;;;;9.50;6.10;;;22.20;52.70;;;;;;5133496;27;20216;-75
2023/06/16 05:32:41;;;;;;;6.47;5.85;;;22.20;52.70;;;;;;5134037;27;20262;-78
2023/06/16 05:35:09;;;;;;;7.60;6.20;;;22.20;52.80;;;;;;5133489;27;20680;-73
2023/06/16 05:37:36;;;;;;;6.70;6.00;;;22.20;52.70;;;;;;5134019;27;20247;-75
2023/06/16 05:40:06;;;;;;;6.97;6.05;;;22.20;52.80;;;;;;5133835;27;20602;-77
2023/06/16 05:42:33;;;;;;;6.75;5.82;;;22.20;53.40;;;;;;5133706;27;20696;-76
2023/06/16 05:45:00;;;;;;;10.23;7.07;;;22.30;52.80;;;;;;5133073;27;20231;-75
2023/06/16 05:47:28;;;;;;;9.25;6.03;;;22.30;52.90;;;;;;5133523;27;20705;-74
2023/06/16 05:49:56;;;;;;;7.82;6.18;;;22.20;52.70;;;;;;5133155;27;20607;-78
2023/06/16 05:52:23;;;;;;;6.95;6.20;;;22.20;52.80;;;;;;5133339;27;20686;-78
2023/06/16 05:54:51;;;;;;;8.15;6.50;;;22.30;52.80;;;;;;5133618;27;20698;-74
2023/06/16 05:57:19;;;;;;;16.08;11.57;;;22.30;52.80;;;;;;5133915;27;20715;-85
2023/06/16 05:59:48;;;;;;;14.07;11.98;;;22.30;53.10;;;;;;5133342;27;20216;-85
2023/06/16 06:02:17;;;;;;;21.60;14.55;;;22.30;53.10;;;;;;5132901;27;20222;-86
2023/06/16 06:04:44;;;;;;;19.02;15.15;;;22.30;53.20;;;;;;5133758;27;20825;-85
2023/06/16 06:07:12;;;;;;;26.50;18.52;;;22.20;53.40;;;;;;5134094;28;20222;-84
2023/06/16 06:09:39;;;;;;;24.60;17.75;;;22.20;53.60;;;;;;5133943;28;20220;-85
2023/06/16 06:54:23;;;;;;;25.75;10.60;;;22.40;54.80;;;;;;4701593;30;20287;-82
2023/06/16 06:59:36;;;;;;;12.50;7.95;;;22.50;54.50;;;;;;4737688;30;20207;-82
2023/06/16 07:02:08;;;;;;;19.52;8.07;;;22.60;54.60;;;;;;4784394;29;20245;-81
2023/06/16 07:04:38;;;;;;;16.25;7.32;;;22.70;54.50;;;;;;4871667;29;20361;-82
2023/06/16 07:07:07;;;;;;;15.30;7.20;;;22.80;54.50;;;;;;4871821;29;20230;-80
2023/06/16 07:09:37;;;;;;;18.98;7.00;;;22.80;54.40;;;;;;4853735;29;20912;-78
2023/06/16 07:12:07;;;;;;;13.95;6.70;;;22.80;54.40;;;;;;4874282;29;20828;-81
2023/06/16 07:17:19;;;;;;;14.45;6.28;;;22.90;54.60;;;;;;5015311;28;20220;-81
2023/06/16 07:19:47;;;;;;;16.90;6.30;;;23.00;54.90;;;;;;5012367;28;20196;-78
2023/06/16 07:22:14;;;;;;;12.18;6.43;;;23.00;55.00;;;;;;5001884;28;20333;-79
2023/06/16 07:27:55;;;;;;;11.18;5.97;;;23.10;54.80;;;;;;5048928;28;20934;-74
2023/06/16 07:33:31;;;;;;;13.30;6.97;;;23.20;54.90;;;;;;4969500;28;20320;-79
2023/06/16 07:36:00;;;;;;;8.75;6.40;;;23.30;54.90;;;;;;4953759;28;20207;-80
2023/06/16 07:44:53;;;;;;;16.58;5.93;;;23.40;54.80;;;;;;4955466;28;20271;-80
2023/06/16 07:47:22;;;;;;;10.45;5.97;;;23.40;54.90;;;;;;4976389;28;20690;-80
2023/06/16 07:49:51;;;;;;;11.65;5.63;;;23.50;54.90;;;;;;4969312;28;20215;-81
2023/06/16 07:52:19;;;;;;;11.02;6.13;;;23.50;54.80;;;;;;4968923;28;20785;-78
2023/06/16 07:54:46;;;;;;;9.45;5.63;;;23.50;54.80;;;;;;4968211;28;20341;-81
2023/06/16 07:57:15;;;;;;;9.85;6.38;;;23.60;54.80;;;;;;4961975;28;20244;-78
2023/06/16 07:59:42;;;;;;;9.07;6.40;;;23.70;54.90;;;;;;5011106;28;20200;-76
2023/06/16 08:02:09;;;;;;;10.05;6.20;;;23.70;54.90;;;;;;5028386;28;20307;-80
2023/06/16 08:07:41;;;;;;;10.50;5.97;;;23.80;55.00;;;;;;5021771;28;20247;-79
2023/06/16 08:23:55;;;;;;;15.57;5.80;;;24.00;55.00;;;;;;4852712;29;20238;-83
2023/06/16 08:26:24;;;;;;;9.25;6.05;;;24.20;55.30;;;;;;4839117;29;20236;-79
2023/06/16 08:28:51;;;;;;;11.43;7.63;;;24.30;55.20;;;;;;4821817;29;20296;-82
2023/06/16 08:31:18;;;;;;;10.13;7.00;;;24.50;55.10;;;;;;4837483;29;20790;-79
2023/06/16 08:33:46;;;;;;;10.07;6.75;;;24.60;55.10;;;;;;4848459;29;20301;-77
2023/06/16 08:36:13;;;;;;;11.77;7.75;;;24.70;55.00;;;;;;4874354;29;20207;-79
2023/06/16 08:38:41;;;;;;;12.27;7.30;;;24.80;54.90;;;;;;4884828;29;20243;-80
2023/06/16 08:47:02;;;;;;;11.52;7.75;;;25.10;54.10;;;;;;4882213;29;20229;-79
2023/06/16 08:49:30;;;;;;;11.55;8.77;;;25.20;53.90;;;;;;4917506;29;20200;-78
2023/06/16 08:51:57;;;;;;;25.33;10.23;;;25.30;53.90;;;;;;4949177;29;20742;-84
2023/06/16 08:54:27;;;;;;;19.70;9.13;;;25.30;53.60;;;;;;4949909;29;20212;-75
2023/06/16 08:57:01;;;;;;;9.85;8.55;;;25.30;53.60;;;;;;4966230;28;20232;-80
2023/06/16 08:59:34;;;;;;;11.98;8.77;;;25.40;53.20;;;;;;5010240;28;20203;-79
2023/06/16 09:02:01;;;;;;;10.88;8.32;;;25.40;53.10;;;;;;5046455;28;20318;-80
2023/06/16 09:04:32;;;;;;;12.60;7.78;;;25.40;52.90;;;;;;5032666;28;20667;-77
2023/06/16 09:06:59;;;;;;;10.60;7.55;;;25.40;52.60;;;;;;5061457;28;20227;-78
2023/06/16 09:09:27;;;;;;;12.57;7.43;;;25.40;52.90;;;;;;5108580;28;20201;-81
2023/06/16 09:14:51;;;;;;;9.00;6.90;;;25.50;52.90;;;;;;5085041;28;20198;-78
2023/06/16 09:17:24;;;;;;;11.70;6.97;;;25.50;52.90;;;;;;5087232;28;20816;-82
2023/06/16 09:20:06;;;;;;;13.88;9.38;;;25.50;53.30;;;;;;5070914;28;20417;-79
2023/06/16 09:22:34;;;;;;;10.43;8.43;;;25.60;52.60;;;;;;5086636;28;20213;-80
2023/06/16 09:25:04;;;;;;;12.77;9.55;;;25.70;52.50;;;;;;5052099;28;20297;-84
2023/06/16 09:27:44;;;;;;;13.70;8.32;;;25.70;52.40;;;;;;5087123;28;20218;-78
2023/06/16 09:30:14;;;;;;;17.00;8.25;;;25.70;52.20;;;;;;5085649;28;20197;-79
2023/06/16 09:32:41;;;;;;;9.13;7.63;;;25.70;52.20;;;;;;5085475;28;20218;-77
2023/06/16 09:35:21;;;;;;;10.48;7.57;;;25.80;52.10;;;;;;5085426;28;20582;-77
2023/06/16 09:37:50;;;;;;;13.75;7.25;;;25.80;51.90;;;;;;5085119;28;20220;-78
2023/06/16 09:40:20;;;;;;;14.18;8.15;;;25.80;52.00;;;;;;5084960;28;20355;-80
2023/06/16 09:42:53;;;;;;;11.23;7.32;;;25.80;51.80;;;;;;5085653;28;20624;-82
2023/06/16 09:45:21;;;;;;;11.98;6.93;;;25.80;52.30;;;;;;5081369;27;20307;-83
2023/06/16 09:47:50;;;;;;;10.63;6.53;;;25.70;51.90;;;;;;5120883;27;20221;-79
2023/06/16 09:50:18;;;;;;;11.75;7.85;;;25.80;52.00;;;;;;5112472;27;20656;-81
2023/06/16 09:52:48;;;;;;;9.00;7.65;;;25.80;51.90;;;;;;5128915;27;20315;-81
2023/06/16 10:05:03;;;;;;;13.00;11.60;;;26.30;51.20;;;;;;4852363;29;20216;-89
2023/06/16 14:03:54;;;;;;;59.75;39.70;;;24.60;53.30;;;;;;4986134;28;20261;-83
2023/06/16 14:06:23;;;;;;;60.58;34.28;;;24.60;53.30;;;;;;5045671;28;20219;-84
2023/06/16 14:08:55;;;;;;;55.45;37.35;;;24.60;53.40;;;;;;5067277;28;20310;-85
2023/06/16 14:11:23;;;;;;;51.85;34.35;;;24.60;53.50;;;;;;5098945;28;20201;-83
2023/06/16 14:13:51;;;;;;;46.42;30.40;;;24.60;53.50;;;;;;5110192;28;20621;-86
2023/06/16 14:16:25;;;;;;;49.13;32.63;;;24.60;53.50;;;;;;5107952;28;20201;-83
2023/06/16 14:18:54;;;;;;;43.65;29.48;;;24.60;53.60;;;;;;5107272;28;20307;-86
2023/06/16 14:21:25;;;;;;;45.42;28.10;;;24.60;53.60;;;;;;5102601;28;20206;-86
2023/06/16 14:23:53;;;;;;;47.92;28.77;;;24.60;53.60;;;;;;5116622;27;20256;-85
2023/06/16 14:26:22;;;;;;;41.58;27.83;;;24.60;53.70;;;;;;5124773;27;20224;-83
2023/06/16 14:28:53;;;;;;;39.97;25.90;;;24.60;54.40;;;;;;5141768;27;20238;-90
2023/06/16 14:31:31;;;;;;;40.78;26.25;;;24.60;53.80;;;;;;5132779;27;20617;-84
2023/06/16 14:33:59;;;;;;;38.60;23.38;;;24.60;53.80;;;;;;5113891;27;20263;-86
2023/06/16 14:36:29;;;;;;;38.28;24.00;;;24.60;53.80;;;;;;5126431;27;20287;-84
2023/06/16 14:38:57;;;;;;;37.15;23.10;;;24.60;53.80;;;;;;5077040;27;20219;-87
2023/06/16 14:41:26;;;;;;;39.85;21.48;;;24.60;53.90;;;;;;5123825;27;20235;-86
2023/06/16 14:43:54;;;;;;;30.08;19.92;;;24.60;53.90;;;;;;5126403;27;20228;-84
2023/06/16 14:46:21;;;;;;;29.20;19.65;;;24.60;53.90;;;;;;5119844;27;20235;-84
2023/06/16 14:48:52;;;;;;;28.98;19.60;;;24.60;54.00;;;;;;5122588;27;20314;-83
2023/06/16 14:51:20;;;;;;;31.25;18.70;;;24.70;54.10;;;;;;5129111;27;20775;-79
2023/06/16 14:54:00;;;;;;;27.75;17.92;;;24.80;54.00;;;;;;5137709;27;20764;-80
2023/06/16 14:56:37;;;;;;;24.65;17.13;;;24.90;54.00;;;;;;5079316;27;20208;-79
2023/06/16 14:59:07;;;;;;;29.92;22.23;;;25.00;54.00;;;;;;5121131;27;20339;-78
2023/06/16 15:01:35;;;;;;;20.27;15.35;;;25.10;54.10;;;;;;5128687;27;20283;-77
2023/06/16 15:04:02;;;;;;;26.92;15.02;;;25.10;53.70;;;;;;5126317;27;20336;-78
2023/06/16 15:06:29;;;;;;;20.95;15.43;;;25.20;53.60;;;;;;5119706;27;20281;-77
2023/06/16 15:08:58;;;;;;;20.80;14.57;;;25.20;53.40;;;;;;5127821;27;20228;-78
2023/06/16 15:11:26;;;;;;;21.38;14.25;;;25.20;53.30;;;;;;5125989;27;20193;-77
2023/06/16 15:13:57;;;;;;;19.83;13.98;;;25.20;53.30;;;;;;5120129;27;20213;-79
2023/06/16 15:16:24;;;;;;;21.98;14.40;;;25.20;53.30;;;;;;5113752;27;20200;-79
2023/06/16 15:18:51;;;;;;;19.33;12.95;;;25.20;53.20;;;;;;5114850;27;21001;-78
2023/06/16 15:21:23;;;;;;;18.98;13.48;;;25.20;53.20;;;;;;5133453;27;20275;-79
2023/06/16 15:23:50;;;;;;;19.20;12.88;;;25.20;53.20;;;;;;5113031;27;20224;-78
2023/06/16 15:26:18;;;;;;;18.42;12.02;;;25.20;53.20;;;;;;5128294;27;20895;-79
2023/06/16 15:28:45;;;;;;;25.80;13.02;;;25.20;53.20;;;;;;5122640;27;20276;-78
2023/06/16 15:31:12;;;;;;;17.90;11.45;;;25.20;53.20;;;;;;5128230;27;20276;-78
2023/06/16 15:33:39;;;;;;;19.63;11.40;;;25.20;53.20;;;;;;5122699;27;20307;-80
2023/06/16 15:36:08;;;;;;;16.33;11.57;;;25.20;53.20;;;;;;5126266;27;20245;-79
2023/06/16 15:38:36;;;;;;;15.25;11.27;;;25.20;53.20;;;;;;5123185;27;20220;-78
2023/06/16 15:41:03;;;;;;;17.00;10.95;;;25.20;53.10;;;;;;5120516;27;20273;-79
2023/06/16 15:43:31;;;;;;;17.75;10.95;;;25.30;53.20;;;;;;5121350;27;20311;-80
2023/06/16 15:45:59;;;;;;;14.45;10.38;;;25.20;53.10;;;;;;5123804;27;20711;-80
2023/06/16 15:48:26;;;;;;;17.55;10.95;;;25.20;53.10;;;;;;5126465;27;20222;-80
2023/06/16 15:50:53;;;;;;;14.30;10.15;;;25.20;53.20;;;;;;5128037;27;20267;-80
2023/06/16 15:53:20;;;;;;;13.15;9.60;;;25.20;53.10;;;;;;5127414;27;20299;-81
2023/06/16 15:55:47;;;;;;;17.08;9.68;;;25.20;53.00;;;;;;5127562;27;20245;-80
2023/06/16 15:58:14;;;;;;;16.58;10.10;;;25.20;53.00;;;;;;5126346;27;20259;-79
2023/06/16 16:00:43;;;;;;;16.45;9.80;;;25.20;53.10;;;;;;5127683;27;20303;-79
2023/06/16 16:03:10;;;;;;;14.55;9.07;;;25.20;53.00;;;;;;5120864;27;20189;-78
2023/06/16 16:05:37;;;;;;;18.98;9.50;;;25.20;53.20;;;;;;5120455;27;20279;-78
2023/06/16 16:08:05;;;;;;;13.63;8.63;;;25.20;53.20;;;;;;5113894;27;20249;-78
2023/06/16 16:10:31;;;;;;;14.52;9.23;;;25.10;53.10;;;;;;5111547;27;20193;-78
2023/06/16 16:12:58;;;;;;;17.20;8.20;;;25.10;53.30;;;;;;5127608;27;20216;-78
2023/06/16 16:15:25;;;;;;;19.20;9.27;;;25.10;53.20;;;;;;5133552;27;20185;-79
2023/06/16 16:17:54;;;;;;;11.50;7.57;;;25.10;53.20;;;;;;5134706;27;20196;-78
2023/06/16 16:20:21;;;;;;;11.30;8.00;;;25.10;53.20;;;;;;5134895;27;20303;-78
2023/06/16 16:22:48;;;;;;;12.88;8.32;;;25.10;53.20;;;;;;5128154;27;20257;-78
2023/06/16 16:25:14;;;;;;;13.20;8.43;;;25.10;53.30;;;;;;5114413;28;20303;-78
2023/06/16 16:27:41;;;;;;;11.50;7.95;;;25.10;53.20;;;;;;5114120;28;20212;-78
2023/06/16 16:30:10;;;;;;;9.27;7.90;;;25.10;53.20;;;;;;5113776;28;20257;-78
2023/06/16 16:32:37;;;;;;;15.07;8.13;;;25.00;53.20;;;;;;5114178;28;20189;-78
2023/06/16 16:35:07;;;;;;;11.48;7.93;;;25.10;53.20;;;;;;5113874;28;20223;-78
2023/06/16 16:37:34;;;;;;;11.30;7.63;;;25.10;53.20;;;;;;5113766;28;20666;-78
2023/06/16 16:40:01;;;;;;;13.93;7.78;;;25.00;53.20;;;;;;5114337;28;20305;-78
2023/06/16 16:42:27;;;;;;;11.77;7.68;;;25.00;53.20;;;;;;5113994;28;20260;-78
2023/06/16 16:44:54;;;;;;;12.80;7.40;;;25.00;53.10;;;;;;5113628;28;20671;-78
2023/06/16 16:47:21;;;;;;;13.82;7.43;;;25.00;53.20;;;;;;5113236;28;20217;-78
2023/06/16 16:49:48;;;;;;;10.25;7.03;;;25.00;53.20;;;;;;5113875;28;20307;-78
2023/06/16 16:52:16;;;;;;;11.40;7.63;;;25.00;53.20;;;;;;5113819;28;20188;-78
2023/06/16 16:54:43;;;;;;;10.65;6.70;;;25.00;53.20;;;;;;5113723;28;20300;-78
2023/06/16 16:57:10;;;;;;;12.35;7.32;;;24.90;53.10;;;;;;5113692;28;20200;-78
2023/06/16 16:59:37;;;;;;;10.30;6.82;;;24.90;53.10;;;;;;5114023;28;20294;-77
2023/06/16 17:02:04;;;;;;;9.68;6.90;;;24.90;53.10;;;;;;5113191;28;20761;-78
2023/06/16 17:04:31;;;;;;;9.35;6.80;;;24.90;53.10;;;;;;5113184;28;20296;-78
2023/06/16 17:06:58;;;;;;;9.30;6.55;;;24.90;53.10;;;;;;5112973;28;20296;-78
2023/06/16 17:09:26;;;;;;;11.90;6.53;;;24.90;53.10;;;;;;5113126;28;20781;-78
2023/06/16 17:11:55;;;;;;;7.97;6.18;;;24.80;53.10;;;;;;5113498;28;20272;-78
2023/06/16 17:14:24;;;;;;;7.68;6.00;;;24.80;53.10;;;;;;5113405;28;20229;-78
2023/06/16 17:16:51;;;;;;;14.55;6.45;;;24.80;53.10;;;;;;5113258;28;20276;-78
2023/06/16 17:19:17;;;;;;;10.20;6.38;;;24.80;53.70;;;;;;5113140;28;20296;-78
2023/06/16 17:21:44;;;;;;;10.88;6.15;;;24.80;53.10;;;;;;5112937;28;20189;-78
2023/06/16 17:24:11;;;;;;;8.95;6.63;;;24.80;53.10;;;;;;5130758;27;20315;-78
2023/06/16 17:26:39;;;;;;;11.75;6.70;;;24.80;53.20;;;;;;5133390;27;20274;-78
2023/06/16 17:29:06;;;;;;;8.60;5.78;;;24.80;53.20;;;;;;5113305;28;20299;-77
2023/06/16 17:31:33;;;;;;;10.93;6.35;;;24.80;53.80;;;;;;5113186;28;20264;-78
2023/06/16 17:34:01;;;;;;;10.30;6.57;;;24.70;53.10;;;;;;5132410;27;20244;-78
2023/06/16 17:36:28;;;;;;;9.93;6.20;;;24.70;53.10;;;;;;5133403;27;20268;-78
2023/06/16 17:38:55;;;;;;;8.65;6.07;;;24.70;53.10;;;;;;5133629;27;20299;-78
2023/06/16 17:41:22;;;;;;;8.52;6.05;;;24.70;53.10;;;;;;5133501;27;20220;-78
2023/06/16 17:43:50;;;;;;;9.30;5.82;;;24.70;53.10;;;;;;5133325;27;20240;-76
2023/06/16 17:46:20;;;;;;;7.55;5.95;;;24.70;53.20;;;;;;5133428;27;20193;-79
2023/06/16 17:48:47;;;;;;;10.43;6.05;;;24.70;53.20;;;;;;5133353;27;20298;-78
2023/06/16 17:51:14;;;;;;;12.80;6.15;;;24.60;53.10;;;;;;5133601;27;20275;-78
2023/06/16 17:53:41;;;;;;;14.32;6.28;;;24.70;53.30;;;;;;5132756;27;20220;-78
2023/06/16 17:56:08;;;;;;;6.35;5.50;;;24.70;53.20;;;;;;5133268;27;20220;-78
2023/06/16 17:58:35;;;;;;;10.80;6.28;;;24.70;53.30;;;;;;5131721;27;20680;-78
2023/06/16 18:01:04;;;;;;;8.60;5.78;;;24.60;53.10;;;;;;5133163;27;20223;-78
2023/06/16 18:03:32;;;;;;;8.57;5.90;;;24.60;53.10;;;;;;5133098;27;20215;-77
2023/06/16 18:06:00;;;;;;;14.13;6.10;;;24.60;53.10;;;;;;5132518;27;20773;-78
2023/06/16 18:08:26;;;;;;;8.13;5.43;;;24.60;53.10;;;;;;5132614;27;20566;-77
2023/06/16 18:10:54;;;;;;;7.25;5.85;;;24.60;53.10;;;;;;5133063;27;20216;-78
2023/06/16 18:13:21;;;;;;;8.73;5.70;;;24.60;53.20;;;;;;5132705;27;20271;-78
2023/06/16 18:15:48;;;;;;;8.07;5.88;;;24.60;53.10;;;;;;5133134;27;20212;-78
2023/06/16 18:18:17;;;;;;;6.93;5.15;;;24.60;53.20;;;;;;5132751;27;20263;-78